createdAt,value
2019-01-10T00:01:02.479Z,3.03
2019-01-10T00:03:36.485Z,3.97
2019-01-10T00:06:10.610Z,4.43
2019-01-10T00:08:44.563Z,3.37
2019-01-10T00:11:18.907Z,4.27
2019-01-10T00:13:53.267Z,3.63
2019-01-10T00:16:27.121Z,3.83
2019-01-10T00:19:00.839Z,3.60
2019-01-10T00:21:34.853Z,3.40
2019-01-10T00:24:08.524Z,3.10
2019-01-10T00:26:42.401Z,3.60
2019-01-10T00:29:17.684Z,3.47
2019-01-10T00:31:53.018Z,3.80
2019-01-10T00:34:28.753Z,3.63
2019-01-10T00:37:05.204Z,4.43
2019-01-10T00:39:39.511Z,3.30
2019-01-10T00:42:14.803Z,3.70
2019-01-10T00:44:49.454Z,3.77
2019-01-10T00:47:24.585Z,3.87
2019-01-10T00:50:00.163Z,4.13
2019-01-10T00:52:34.602Z,3.90
2019-01-10T00:55:08.943Z,3.90
2019-01-10T00:57:43.624Z,3.47
2019-01-10T01:00:24.105Z,3.47
2019-01-10T01:02:57.887Z,3.50
2019-01-10T01:05:33.998Z,3.50
2019-01-10T01:08:08.234Z,3.40
2019-01-10T01:10:42.533Z,4.37
2019-01-10T01:13:17.071Z,3.73
2019-01-10T01:15:51.915Z,3.70
2019-01-10T01:18:30.736Z,3.67
2019-01-10T01:21:05.989Z,3.77
2019-01-10T01:23:41.517Z,3.23
2019-01-10T01:26:16.130Z,3.63
2019-01-10T01:28:50.299Z,3.40
2019-01-10T01:31:24.473Z,3.07
2019-01-10T01:33:58.915Z,3.03
2019-01-10T01:36:33.337Z,3.20
2019-01-10T01:39:09.439Z,4.07
2019-01-10T01:41:44.558Z,3.93
2019-01-10T01:44:19.669Z,3.37
2019-01-10T01:47:11.314Z,3.43
2019-01-10T01:49:45.719Z,3.07
2019-01-10T01:52:20.193Z,3.63
2019-01-10T01:54:55.602Z,3.10
2019-01-10T01:57:32.923Z,3.30
2019-01-10T02:00:11.054Z,3.30
2019-01-10T02:02:47.593Z,2.90
2019-01-10T02:05:22.252Z,3.07
2019-01-10T02:07:57.628Z,3.70
2019-01-10T02:10:33.469Z,3.30
2019-01-10T02:13:16.485Z,3.00
2019-01-10T02:15:44.616Z,3.30
2019-01-10T02:18:18.682Z,3.53
2019-01-10T02:20:53.425Z,4.57
2019-01-10T02:23:27.669Z,3.13
2019-01-10T02:26:03.743Z,3.57
2019-01-10T02:28:39.824Z,3.87
2019-01-10T02:31:14.503Z,3.13
2019-01-10T02:33:49.364Z,3.43
2019-01-10T02:36:23.844Z,3.80
2019-01-10T02:38:58.459Z,3.53
2019-01-10T02:41:33.190Z,3.30
2019-01-10T02:44:07.096Z,3.50
2019-01-10T02:46:41.836Z,3.07
2019-01-10T02:49:16.892Z,3.60
2019-01-10T02:51:50.737Z,2.97
2019-01-10T02:54:25.928Z,2.93
2019-01-10T02:57:00.316Z,3.87
2019-01-10T02:59:34.490Z,2.90
2019-01-10T03:02:09.710Z,3.30
2019-01-10T03:04:43.951Z,3.63
2019-01-10T03:07:18.272Z,3.23
2019-01-10T03:09:52.819Z,3.37
2019-01-10T03:12:27.359Z,3.30
2019-01-10T03:15:03.296Z,3.00
2019-01-10T03:17:38.669Z,3.50
2019-01-10T03:20:14.406Z,3.57
2019-01-10T03:22:48.756Z,3.23
2019-01-10T03:25:22.458Z,3.93
2019-01-10T03:27:58.810Z,4.00
2019-01-10T03:30:33.585Z,4.47
2019-01-10T03:33:09.658Z,3.63
2019-01-10T03:35:44.021Z,3.63
2019-01-10T03:38:18.709Z,4.00
2019-01-10T03:40:52.814Z,3.67
2019-01-10T03:43:28.153Z,3.97
2019-01-10T03:46:02.258Z,3.90
2019-01-10T03:48:39.458Z,3.80
2019-01-10T03:51:14.122Z,3.67
2019-01-10T03:53:48.943Z,3.73
2019-01-10T03:56:24.992Z,3.67
2019-01-10T03:58:59.277Z,3.03
2019-01-10T04:01:33.520Z,3.90
2019-01-10T04:04:09.593Z,3.43
2019-01-10T04:06:45.947Z,3.60
2019-01-10T04:09:21.268Z,3.60
2019-01-10T04:11:55.420Z,2.90
2019-01-10T04:14:29.907Z,3.40
2019-01-10T04:17:04.413Z,3.43
2019-01-10T04:19:39.605Z,2.90
2019-01-10T04:22:14.682Z,3.43
2019-01-10T04:24:48.603Z,3.70
2019-01-10T04:27:24.454Z,3.63
2019-01-10T04:29:58.935Z,3.03
2019-01-10T04:32:33.491Z,3.53
2019-01-10T04:35:10.870Z,3.40
2019-01-10T04:37:45.498Z,3.77
2019-01-10T04:40:22.919Z,3.43
2019-01-10T04:42:57.108Z,2.70
2019-01-10T04:45:32.363Z,3.30
2019-01-10T04:48:06.604Z,3.33
2019-01-10T04:50:41.317Z,3.10
2019-01-10T04:53:15.810Z,3.60
2019-01-10T04:55:49.809Z,2.80
2019-01-10T04:58:24.676Z,3.40
2019-01-10T05:00:59.234Z,3.00
2019-01-10T05:03:33.426Z,2.83
2019-01-10T05:06:09.586Z,3.53
2019-01-10T05:08:45.529Z,3.33
2019-01-10T05:11:19.754Z,2.73
2019-01-10T05:13:55.193Z,2.90
2019-01-10T05:16:29.401Z,3.40
2019-01-10T05:19:07.993Z,2.93
2019-01-10T05:21:43.148Z,3.63
2019-01-10T05:24:18.480Z,3.37
2019-01-10T05:26:56.490Z,3.00
2019-01-10T05:29:30.740Z,3.57
2019-01-10T05:32:05.693Z,3.17
2019-01-10T05:34:41.254Z,3.27
2019-01-10T05:37:16.293Z,3.90
2019-01-10T05:39:51.590Z,3.80
2019-01-10T05:42:26.187Z,3.57
2019-01-10T05:45:00.004Z,3.03
2019-01-10T05:47:34.158Z,3.63
2019-01-10T05:50:09.286Z,2.83
2019-01-10T05:52:43.536Z,3.53
2019-01-10T05:55:22.437Z,3.60
2019-01-10T05:57:57.192Z,3.07
2019-01-10T06:00:48.990Z,3.70
2019-01-10T06:03:25.071Z,3.33
2019-01-10T06:05:59.861Z,3.53
2019-01-10T06:08:34.771Z,3.73
2019-01-10T06:11:14.229Z,2.90
2019-01-10T06:13:50.548Z,3.40
2019-01-10T06:16:26.633Z,3.40
2019-01-10T06:19:02.925Z,3.30
2019-01-10T06:21:37.507Z,3.30
2019-01-10T06:24:11.874Z,3.57
2019-01-10T06:26:43.231Z,3.40
2019-01-10T06:29:15.755Z,3.87
2019-01-10T06:31:47.688Z,3.13
2019-01-10T06:34:19.638Z,3.60
2019-01-10T06:36:51.950Z,4.03
2019-01-10T06:39:23.454Z,3.20
2019-01-10T06:41:55.027Z,3.60
2019-01-10T06:44:26.266Z,4.30
2019-01-10T06:46:57.922Z,4.17
2019-01-10T06:49:29.476Z,3.70
2019-01-10T06:52:01.349Z,4.03
2019-01-10T06:54:32.847Z,3.20
2019-01-10T06:57:04.605Z,3.37
2019-01-10T06:59:38.846Z,3.93
2019-01-10T07:02:12.160Z,3.87
2019-01-10T07:04:46.129Z,3.40
2019-01-10T07:07:17.839Z,4.00
2019-01-10T07:09:53.186Z,3.80
2019-01-10T07:12:25.336Z,3.67
2019-01-10T07:14:57.075Z,3.67
2019-01-10T07:17:28.611Z,3.93
2019-01-10T07:19:59.807Z,3.70
2019-01-10T07:22:31.601Z,4.33
2019-01-10T07:25:03.182Z,3.50
2019-01-10T07:27:35.026Z,3.63
2019-01-10T07:30:08.274Z,3.53
2019-01-10T07:32:40.182Z,4.20
2019-01-10T07:35:14.069Z,3.73
2019-01-10T07:37:51.366Z,3.93
2019-01-10T07:40:25.450Z,3.70
2019-01-10T07:42:57.646Z,4.80
2019-01-10T07:45:29.885Z,4.23
2019-01-10T07:48:01.515Z,3.90
2019-01-10T07:50:37.909Z,4.83
2019-01-10T07:53:10.536Z,3.87
2019-01-10T07:55:42.732Z,4.00
2019-01-10T07:58:14.489Z,4.03
2019-01-10T08:00:46.523Z,4.00
2019-01-10T08:03:18.713Z,4.03
2019-01-10T08:05:50.421Z,4.20
2019-01-10T08:08:22.038Z,4.73
2019-01-10T08:10:53.688Z,4.43
2019-01-10T08:13:26.207Z,3.43
2019-01-10T08:15:58.145Z,3.43
2019-01-10T08:18:30.648Z,4.20
2019-01-10T08:21:03.411Z,3.40
2019-01-10T08:23:35.728Z,3.70
2019-01-10T08:26:07.433Z,3.90
2019-01-10T08:28:38.905Z,4.20
2019-01-10T08:31:11.010Z,5.60
2019-01-10T08:33:42.527Z,9.47
2019-01-10T08:36:13.763Z,14.33
2019-01-10T08:38:45.547Z,12.13
2019-01-10T08:41:17.266Z,5.00
2019-01-10T08:43:48.983Z,5.43
2019-01-10T08:46:20.434Z,4.27
2019-01-10T08:48:52.404Z,3.73
2019-01-10T08:51:24.024Z,4.13
2019-01-10T08:53:55.824Z,4.30
2019-01-10T08:56:27.337Z,3.90
2019-01-10T08:59:01.021Z,4.63
2019-01-10T09:01:33.635Z,4.10
2019-01-10T09:04:05.414Z,4.50
2019-01-10T09:06:36.832Z,4.57
2019-01-10T09:09:10.180Z,4.40
2019-01-10T09:11:41.787Z,4.03
2019-01-10T09:14:14.449Z,4.07
2019-01-10T09:16:46.314Z,4.37
2019-01-10T09:19:17.980Z,4.30
2019-01-10T09:21:49.420Z,4.50
2019-01-10T09:24:21.055Z,3.80
2019-01-10T09:26:52.970Z,4.20
2019-01-10T09:29:24.138Z,4.27
2019-01-10T09:31:55.997Z,4.23
2019-01-10T09:34:27.930Z,4.13
2019-01-10T09:36:59.375Z,4.50
2019-01-10T09:39:30.755Z,4.53
2019-01-10T09:42:04.254Z,4.27
2019-01-10T09:44:36.935Z,3.93
2019-01-10T09:47:08.794Z,4.30
2019-01-10T09:49:40.197Z,4.37
2019-01-10T09:52:12.304Z,4.67
2019-01-10T09:54:43.991Z,4.07
2019-01-10T09:57:15.348Z,4.33
2019-01-10T09:59:46.825Z,5.30
2019-01-10T10:02:18.530Z,4.63
2019-01-10T10:04:49.971Z,4.90
2019-01-10T10:07:21.488Z,4.87
2019-01-10T10:09:52.882Z,6.60
2019-01-10T10:12:25.294Z,5.60
2019-01-10T10:14:56.757Z,5.60
2019-01-10T10:17:28.215Z,6.30
2019-01-10T10:19:59.894Z,8.60
2019-01-10T10:22:31.641Z,5.67
2019-01-10T10:25:03.333Z,5.40
2019-01-10T10:27:34.841Z,10.17
2019-01-10T10:30:09.714Z,4.87
2019-01-10T10:32:42.041Z,4.63
2019-01-10T10:35:14.561Z,4.50
2019-01-10T10:37:46.341Z,4.93
2019-01-10T10:40:21.982Z,4.90
2019-01-10T10:42:54.501Z,4.20
2019-01-10T10:45:26.269Z,4.53
2019-01-10T10:47:57.511Z,4.17
2019-01-10T10:50:30.703Z,4.43
2019-01-10T10:53:04.429Z,4.40
2019-01-10T10:55:36.104Z,4.63
2019-01-10T10:58:07.921Z,4.30
2019-01-10T11:00:41.035Z,4.70
2019-01-10T11:03:13.023Z,4.27
2019-01-10T11:05:44.897Z,3.80
2019-01-10T11:08:16.716Z,3.97
2019-01-10T11:10:48.744Z,3.90
2019-01-10T11:13:26.532Z,4.40
2019-01-10T11:15:58.456Z,4.40
2019-01-10T11:18:29.886Z,3.77
2019-01-10T11:21:01.526Z,3.53
2019-01-10T11:23:33.081Z,3.60
2019-01-10T11:26:04.772Z,3.00
2019-01-10T11:28:36.431Z,3.10
2019-01-10T11:31:07.855Z,3.93
2019-01-10T11:33:40.321Z,3.97
2019-01-10T11:36:13.286Z,3.17
2019-01-10T11:38:45.580Z,3.27
2019-01-10T11:41:17.280Z,3.27
2019-01-10T11:43:49.415Z,3.20
2019-01-10T11:46:21.023Z,3.13
2019-01-10T11:48:52.472Z,3.17
2019-01-10T11:51:24.083Z,3.07
2019-01-10T11:53:55.687Z,3.03
2019-01-10T11:56:27.335Z,3.10
2019-01-10T11:58:59.294Z,3.23
2019-01-10T12:01:30.812Z,2.83
2019-01-10T12:04:02.591Z,2.87
2019-01-10T12:06:34.176Z,2.83
2019-01-10T12:09:07.930Z,3.30
2019-01-10T12:11:42.180Z,2.90
2019-01-10T12:14:13.765Z,3.30
2019-01-10T12:16:46.927Z,3.27
2019-01-10T12:19:18.302Z,3.53
2019-01-10T12:21:52.696Z,2.90
2019-01-10T12:24:24.505Z,2.90
2019-01-10T12:26:56.125Z,3.23
2019-01-10T12:29:35.929Z,2.93
2019-01-10T12:32:00.888Z,2.90
2019-01-10T12:34:32.376Z,3.10
2019-01-10T12:37:03.946Z,3.30
2019-01-10T12:39:35.263Z,2.90
2019-01-10T12:42:06.959Z,3.63
2019-01-10T12:44:38.665Z,3.00
2019-01-10T12:47:10.041Z,3.23
2019-01-10T12:49:41.855Z,3.10
2019-01-10T12:52:13.281Z,3.30
2019-01-10T12:54:44.768Z,3.07
2019-01-10T12:57:16.307Z,2.93
2019-01-10T12:59:51.518Z,3.23
2019-01-10T13:02:23.230Z,3.10
2019-01-10T13:04:55.263Z,3.33
2019-01-10T13:07:28.130Z,3.43
2019-01-10T13:10:00.208Z,3.50
2019-01-10T13:12:32.712Z,3.30
2019-01-10T13:15:04.564Z,3.10
2019-01-10T13:17:36.241Z,3.33
2019-01-10T13:20:08.773Z,2.80
2019-01-10T13:22:40.229Z,3.00
2019-01-10T13:25:13.842Z,3.10
2019-01-10T13:27:45.684Z,2.77
2019-01-10T13:30:25.023Z,3.17
2019-01-10T13:32:57.387Z,3.13
2019-01-10T13:35:28.813Z,3.40
2019-01-10T13:38:00.086Z,3.47
2019-01-10T13:40:32.054Z,3.57
2019-01-10T13:43:03.631Z,3.53
2019-01-10T13:45:35.804Z,2.80
2019-01-10T13:48:07.933Z,3.27
2019-01-10T13:50:39.280Z,2.87
2019-01-10T13:53:12.701Z,3.23
2019-01-10T13:55:44.344Z,3.17
2019-01-10T13:58:15.920Z,3.00
2019-01-10T14:00:47.536Z,3.00
2019-01-10T14:03:19.718Z,3.07
2019-01-10T14:05:53.525Z,3.47
2019-01-10T14:08:31.046Z,3.30
2019-01-10T14:11:07.184Z,3.73
2019-01-10T14:13:40.933Z,3.47
2019-01-10T14:16:17.111Z,2.77
2019-01-10T14:18:49.838Z,3.07
2019-01-10T14:21:22.187Z,3.40
2019-01-10T14:23:54.035Z,3.77
2019-01-10T14:26:25.913Z,3.80
2019-01-10T14:28:59.080Z,3.27
2019-01-10T14:31:30.472Z,2.80
2019-01-10T14:34:02.138Z,3.17
2019-01-10T14:36:33.762Z,3.10
2019-01-10T14:39:07.104Z,3.23
2019-01-10T14:41:38.513Z,2.80
2019-01-10T14:44:10.143Z,2.43
2019-01-10T14:46:41.799Z,3.80
2019-01-10T14:49:13.074Z,3.20
2019-01-10T14:51:45.160Z,3.53
2019-01-10T14:54:16.724Z,3.77
2019-01-10T14:56:48.653Z,3.60
2019-01-10T14:59:21.541Z,3.30
2019-01-10T15:01:54.023Z,5.77
2019-01-10T15:04:24.654Z,3.27
2019-01-10T15:06:55.353Z,3.67
2019-01-10T15:09:25.999Z,4.50
2019-01-10T15:11:56.728Z,4.60
2019-01-10T15:14:29.282Z,4.13
2019-01-10T15:17:00.604Z,4.87
2019-01-10T15:19:31.123Z,4.17
2019-01-10T15:22:04.838Z,5.33
2019-01-10T15:24:36.542Z,4.57
2019-01-10T15:27:07.205Z,4.90
2019-01-10T15:29:37.811Z,5.00
2019-01-10T15:32:08.606Z,4.37
2019-01-10T15:34:41.299Z,4.63
2019-01-10T15:37:11.928Z,4.90
2019-01-10T15:39:42.646Z,4.20
2019-01-10T15:42:13.238Z,4.90
2019-01-10T15:44:43.907Z,5.70
2019-01-10T15:47:16.755Z,4.77
2019-01-10T15:49:46.718Z,4.60
2019-01-10T15:52:17.375Z,4.53
2019-01-10T15:54:48.798Z,4.40
2019-01-10T15:57:20.940Z,4.73
2019-01-10T15:59:51.504Z,4.40
2019-01-10T16:02:22.294Z,4.30
2019-01-10T16:04:54.131Z,4.70
2019-01-10T16:07:24.936Z,4.70
2019-01-10T16:09:55.773Z,4.97
2019-01-10T16:12:26.796Z,5.10
2019-01-10T16:15:08.903Z,4.00
2019-01-10T16:17:53.370Z,4.87
2019-01-10T16:20:21.085Z,6.63
2019-01-10T16:22:52.899Z,4.50
2019-01-10T16:25:24.185Z,5.53
2019-01-10T16:27:56.264Z,5.00
2019-01-10T16:30:31.432Z,4.90
2019-01-10T16:33:04.575Z,5.00
2019-01-10T16:35:35.236Z,4.60
2019-01-10T16:38:06.855Z,5.10
2019-01-10T16:40:38.459Z,4.67
2019-01-10T16:43:12.063Z,4.77
2019-01-10T16:45:41.841Z,4.60
2019-01-10T16:48:13.761Z,4.47
2019-01-10T16:50:45.470Z,4.60
2019-01-10T16:53:24.044Z,4.60
2019-01-10T16:55:52.959Z,4.80
2019-01-10T16:58:25.197Z,5.13
2019-01-10T17:00:58.387Z,4.60
2019-01-10T17:03:31.561Z,4.57
2019-01-10T17:06:04.963Z,4.53
2019-01-10T17:08:42.888Z,4.60
2019-01-10T17:11:19.010Z,4.67
2019-01-10T17:13:53.469Z,4.87
2019-01-10T17:16:27.119Z,4.67
2019-01-10T17:19:00.120Z,4.60
2019-01-10T17:21:32.888Z,4.73
2019-01-10T17:24:05.933Z,5.43
2019-01-10T17:26:40.039Z,4.40
2019-01-10T17:29:18.589Z,5.17
2019-01-10T17:31:52.316Z,4.57
2019-01-10T17:34:25.852Z,4.17
2019-01-10T17:36:58.948Z,4.60
2019-01-10T17:39:32.240Z,4.73
2019-01-10T17:42:07.358Z,4.87
2019-01-10T17:44:42.166Z,4.30
2019-01-10T17:47:15.473Z,4.77
2019-01-10T17:49:48.724Z,4.67
2019-01-10T17:52:25.041Z,5.20
2019-01-10T17:54:55.963Z,4.70
2019-01-10T17:57:30.301Z,4.03
2019-01-10T18:00:05.454Z,4.50
2019-01-10T18:02:38.335Z,4.40
2019-01-10T18:05:10.978Z,4.37
2019-01-10T18:07:43.790Z,5.03
2019-01-10T18:10:19.536Z,4.80
2019-01-10T18:12:56.541Z,5.07
2019-01-10T18:15:32.435Z,4.70
2019-01-10T18:18:04.690Z,4.67
2019-01-10T18:20:39.399Z,5.10
2019-01-10T18:23:15.092Z,4.67
2019-01-10T18:25:49.058Z,5.67
2019-01-10T18:28:22.364Z,4.97
2019-01-10T18:30:54.912Z,4.50
2019-01-10T18:33:28.288Z,5.17
2019-01-10T18:36:00.865Z,7.10
2019-01-10T18:38:45.209Z,7.03
2019-01-10T18:41:20.194Z,5.70
2019-01-10T18:43:53.796Z,5.27
2019-01-10T18:46:27.805Z,4.00
2019-01-10T18:49:02.609Z,5.03
2019-01-10T18:51:37.738Z,4.87
2019-01-10T18:54:11.031Z,5.63
2019-01-10T18:56:44.957Z,7.53
2019-01-10T18:59:18.955Z,9.30
2019-01-10T19:01:52.027Z,9.13
2019-01-10T19:04:26.736Z,5.73
2019-01-10T19:06:59.779Z,5.30
2019-01-10T19:09:33.516Z,5.53
2019-01-10T19:12:07.241Z,5.27
2019-01-10T19:14:40.362Z,4.40
2019-01-10T19:17:13.746Z,4.93
2019-01-10T19:19:48.258Z,5.83
2019-01-10T19:22:21.616Z,4.73
2019-01-10T19:24:54.416Z,5.97
2019-01-10T19:27:28.951Z,5.77
2019-01-10T19:30:03.358Z,5.33
2019-01-10T19:32:37.037Z,5.47
2019-01-10T19:35:11.727Z,5.37
2019-01-10T19:37:48.131Z,6.10
2019-01-10T19:40:21.406Z,5.97
2019-01-10T19:42:57.045Z,6.20
2019-01-10T19:45:30.799Z,6.10
2019-01-10T19:48:09.688Z,6.13
2019-01-10T19:50:40.460Z,6.33
2019-01-10T19:53:14.759Z,6.47
2019-01-10T19:55:52.373Z,5.90
2019-01-10T19:58:26.899Z,5.50
2019-01-10T20:01:01.196Z,6.73
2019-01-10T20:03:37.116Z,6.83
2019-01-10T20:06:12.050Z,7.23
2019-01-10T20:08:48.881Z,14.73
2019-01-10T20:11:22.931Z,6.27
2019-01-10T20:13:57.806Z,9.80
2019-01-10T20:16:30.983Z,22.80
2019-01-10T20:19:06.609Z,11.13
2019-01-10T20:21:40.184Z,10.03
2019-01-10T20:24:16.756Z,7.37
2019-01-10T20:26:52.815Z,7.33
2019-01-10T20:29:35.405Z,5.70
2019-01-10T20:32:09.856Z,5.80
2019-01-10T20:34:43.463Z,6.77
2019-01-10T20:37:17.937Z,10.53
2019-01-10T20:39:51.734Z,8.23
2019-01-10T20:42:25.860Z,4.90
2019-01-10T20:45:00.858Z,6.93
2019-01-10T20:47:35.894Z,5.80
2019-01-10T20:50:10.005Z,5.83
2019-01-10T20:52:43.153Z,7.10
2019-01-10T20:55:16.507Z,9.23
2019-01-10T20:57:50.878Z,6.30
2019-01-10T21:00:26.769Z,7.53
2019-01-10T21:03:00.096Z,7.50
2019-01-10T21:05:34.433Z,6.43
2019-01-10T21:08:08.058Z,6.80
2019-01-10T21:10:41.047Z,6.47
2019-01-10T21:13:14.751Z,6.33
2019-01-10T21:15:47.669Z,6.77
2019-01-10T21:18:28.665Z,5.77
2019-01-10T21:20:58.904Z,6.33
2019-01-10T21:23:34.666Z,6.17
2019-01-10T21:26:10.897Z,6.70
2019-01-10T21:28:43.411Z,5.03
2019-01-10T21:31:16.619Z,5.10
2019-01-10T21:33:51.930Z,4.30
2019-01-10T21:36:27.435Z,4.10
2019-01-10T21:39:01.563Z,3.93
2019-01-10T21:41:36.132Z,4.53
2019-01-10T21:44:09.780Z,4.03
2019-01-10T21:46:45.125Z,4.40
2019-01-10T21:49:17.894Z,5.40
2019-01-10T21:51:53.181Z,6.03
2019-01-10T21:54:27.981Z,6.57
2019-01-10T21:57:04.240Z,5.40
2019-01-10T21:59:36.926Z,5.00
2019-01-10T22:02:11.785Z,5.27
2019-01-10T22:04:44.732Z,5.00
2019-01-10T22:07:16.428Z,5.27
2019-01-10T22:09:49.762Z,5.30
2019-01-10T22:12:22.493Z,5.23
2019-01-10T22:14:55.872Z,5.20
2019-01-10T22:17:28.276Z,6.07
2019-01-10T22:19:59.033Z,6.23
2019-01-10T22:22:31.309Z,5.53
2019-01-10T22:25:04.147Z,5.33
2019-01-10T22:27:36.953Z,5.30
2019-01-10T22:30:10.815Z,5.50
2019-01-10T22:32:42.289Z,7.90
2019-01-10T22:35:16.426Z,5.87
2019-01-10T22:37:49.431Z,6.03
2019-01-10T22:40:23.805Z,5.43
2019-01-10T22:42:56.695Z,6.47
2019-01-10T22:45:29.764Z,6.53
2019-01-10T22:48:02.874Z,6.30
2019-01-10T22:50:35.800Z,6.03
2019-01-10T22:53:08.886Z,4.70
2019-01-10T22:55:45.743Z,5.37
2019-01-10T22:58:19.341Z,9.07
2019-01-10T23:01:34.632Z,4.57
2019-01-10T23:04:09.126Z,4.57
2019-01-10T23:06:42.880Z,4.87
2019-01-10T23:09:20.214Z,5.10
2019-01-10T23:11:54.250Z,5.40
2019-01-10T23:14:28.247Z,5.50
2019-01-10T23:17:01.656Z,5.83
2019-01-10T23:19:38.525Z,6.20
2019-01-10T23:22:14.294Z,5.90
2019-01-10T23:24:55.444Z,5.43
2019-01-10T23:27:31.307Z,5.40
2019-01-10T23:30:12.782Z,5.83
2019-01-10T23:32:47.013Z,6.40
2019-01-10T23:35:25.354Z,6.97
2019-01-10T23:38:00.637Z,7.83
2019-01-10T23:40:35.665Z,8.03
2019-01-10T23:43:10.139Z,9.00
2019-01-10T23:45:44.900Z,8.13
2019-01-10T23:48:19.579Z,8.30
2019-01-10T23:50:53.755Z,8.10
2019-01-10T23:53:27.614Z,7.97
2019-01-10T23:56:01.279Z,7.63
2019-01-10T23:58:38.154Z,7.97
